In Rescue
 
Open Full Screen Window  High Contrast Mode
July 22, 2019 11:42 PM CDT
Weather Information
Wind Direction
  ---
Wind Speed
  00 kt (0 mph)
Wind Gust
  00 kt (0 mph)
Altimeter
30.27 in
Visibility
10 SM
Temperature
15° C
59° F
Dewpoint
13° C
55° F
Humidity
88%
1hr Rain Fall
00.00 in.
24hr Rain Fall
00.00 in.
Sky Condition
Scattered @ 5,000 ft
VFR

METAR KMJQ 230442Z AUTO 00000KT 10SM SCT050 15/13 A3027 RMK AO2 PWINO

FAA Disclaimer: The data displayed is for advisory purposes only and is not to be used for flight planning or operations.